createdAt,value
2023-01-17T00:02:44.293Z,6.75
2023-01-17T00:05:47.933Z,4.95
2023-01-17T00:08:51.938Z,7.72
2023-01-17T00:11:37.146Z,4.95
2023-01-17T00:14:22.595Z,6.30
2023-01-17T00:17:07.849Z,7.30
2023-01-17T00:20:11.534Z,6.85
2023-01-17T00:23:23.039Z,5.63
2023-01-17T00:26:19.263Z,5.30
2023-01-17T00:29:04.346Z,7.07
2023-01-17T00:31:49.319Z,6.35
2023-01-17T00:34:34.318Z,7.93
2023-01-17T00:37:19.381Z,8.38
2023-01-17T00:40:04.706Z,8.75
2023-01-17T00:42:49.704Z,8.70
2023-01-17T00:45:53.467Z,8.65
2023-01-17T00:48:58.453Z,8.88
2023-01-17T00:52:02.550Z,8.20
2023-01-17T00:55:06.457Z,11.05
2023-01-17T00:58:10.250Z,8.50
2023-01-17T01:01:14.026Z,7.90
2023-01-17T01:04:18.024Z,8.07
2023-01-17T01:07:21.884Z,9.25
2023-01-17T01:10:26.239Z,8.55
2023-01-17T01:13:30.311Z,8.25
2023-01-17T01:16:34.779Z,9.02
2023-01-17T01:19:38.485Z,8.43
2023-01-17T01:22:42.535Z,8.60
2023-01-17T01:25:46.577Z,7.90
2023-01-17T01:28:50.290Z,9.25
2023-01-17T01:31:54.162Z,8.23
2023-01-17T01:34:39.341Z,7.43
2023-01-17T01:37:24.634Z,8.98
2023-01-17T01:40:10.194Z,10.73
2023-01-17T01:42:57.968Z,10.73
2023-01-17T01:45:48.745Z,10.10
2023-01-17T01:48:38.293Z,8.50
2023-01-17T01:51:31.435Z,10.13
2023-01-17T01:54:21.566Z,9.75
2023-01-17T01:57:09.670Z,12.55
2023-01-17T01:59:58.932Z,7.93
2023-01-17T02:02:48.505Z,10.05
2023-01-17T02:05:34.742Z,8.80
2023-01-17T02:08:22.807Z,11.52
2023-01-17T02:11:08.111Z,8.70
2023-01-17T02:13:53.308Z,9.40
2023-01-17T02:16:50.529Z,10.32
2023-01-17T02:19:53.910Z,10.15
2023-01-17T02:22:50.967Z,12.18
2023-01-17T02:26:17.589Z,10.45
2023-01-17T02:29:11.623Z,12.40
2023-01-17T02:32:31.831Z,9.93
2023-01-17T02:35:28.100Z,9.63
2023-01-17T02:38:36.781Z,9.23
2023-01-17T02:41:31.054Z,10.00
2023-01-17T02:44:19.121Z,10.45
2023-01-17T02:47:21.413Z,9.98
2023-01-17T02:50:13.736Z,13.05
2023-01-17T02:53:26.001Z,13.45
2023-01-17T02:56:45.578Z,13.43
2023-01-17T02:59:46.078Z,16.13
2023-01-17T03:02:57.258Z,15.20
2023-01-17T03:05:54.350Z,14.75
2023-01-17T03:08:46.101Z,13.98
2023-01-17T03:11:31.483Z,14.55
2023-01-17T03:14:16.797Z,15.10
2023-01-17T03:17:01.798Z,15.27
2023-01-17T03:19:46.972Z,14.13
2023-01-17T03:22:32.071Z,11.88
2023-01-17T03:25:17.573Z,13.18
2023-01-17T03:28:02.956Z,11.90
2023-01-17T03:30:47.890Z,11.50
2023-01-17T03:33:33.379Z,10.50
2023-01-17T03:36:20.223Z,11.02
2023-01-17T03:39:05.385Z,8.85
2023-01-17T03:41:50.828Z,7.75
2023-01-17T03:44:36.062Z,7.22
2023-01-17T03:47:21.389Z,9.02
2023-01-17T03:50:06.343Z,10.02
2023-01-17T03:52:51.897Z,10.75
2023-01-17T03:55:37.013Z,8.95
2023-01-17T03:58:22.013Z,8.52
2023-01-17T04:01:07.481Z,7.50
2023-01-17T04:03:52.611Z,8.57
2023-01-17T04:06:38.067Z,8.75
2023-01-17T04:09:23.275Z,10.35
2023-01-17T04:12:09.477Z,10.27
2023-01-17T04:14:54.797Z,10.20
2023-01-17T04:17:39.942Z,8.63
2023-01-17T04:20:32.852Z,7.38
2023-01-17T04:23:18.678Z,10.93
2023-01-17T04:26:04.045Z,8.15
2023-01-17T04:28:49.574Z,9.52
2023-01-17T04:31:34.763Z,8.82
2023-01-17T04:34:19.875Z,10.43
2023-01-17T04:37:05.159Z,16.02
2023-01-17T04:39:50.450Z,11.40
2023-01-17T04:42:35.595Z,12.75
2023-01-17T04:45:20.621Z,11.50
2023-01-17T04:48:06.452Z,12.80
2023-01-17T04:50:51.718Z,12.88
2023-01-17T04:53:40.127Z,12.15
2023-01-17T04:56:25.368Z,9.02
2023-01-17T04:59:10.448Z,8.55
2023-01-17T05:01:55.537Z,9.27
2023-01-17T05:04:40.764Z,11.30
2023-01-17T05:07:25.648Z,10.32
2023-01-17T05:10:11.183Z,10.13
2023-01-17T05:12:57.847Z,9.40
2023-01-17T05:15:43.290Z,8.75
2023-01-17T05:18:28.547Z,8.85
2023-01-17T05:21:13.628Z,10.15
2023-01-17T05:23:58.630Z,8.88
2023-01-17T05:26:43.789Z,10.25
2023-01-17T05:29:30.288Z,8.38
2023-01-17T05:32:15.483Z,8.38
2023-01-17T05:35:02.489Z,7.95
2023-01-17T05:37:49.526Z,8.63
2023-01-17T05:40:34.698Z,9.07
2023-01-17T05:43:21.996Z,6.50
2023-01-17T05:46:07.639Z,10.35
2023-01-17T05:48:52.659Z,10.05
2023-01-17T05:51:39.530Z,11.63
2023-01-17T05:54:24.638Z,9.82
2023-01-17T05:57:09.875Z,9.65
2023-01-17T05:59:54.828Z,9.43
2023-01-17T06:02:40.355Z,9.98
2023-01-17T06:05:26.792Z,11.52
2023-01-17T06:08:11.817Z,9.75
2023-01-17T06:10:59.156Z,11.55
2023-01-17T06:13:44.703Z,9.38
2023-01-17T06:16:30.033Z,8.75
2023-01-17T06:19:15.161Z,10.88
2023-01-17T06:22:00.298Z,9.43
2023-01-17T06:24:45.488Z,9.15
2023-01-17T06:27:30.769Z,9.90
2023-01-17T06:30:16.264Z,10.65
2023-01-17T06:33:01.859Z,10.38
2023-01-17T06:35:51.528Z,13.82
2023-01-17T06:38:37.095Z,13.00
2023-01-17T06:41:23.288Z,11.60
2023-01-17T06:44:09.882Z,11.30
2023-01-17T06:46:55.254Z,8.23
2023-01-17T06:49:40.446Z,11.40
2023-01-17T06:52:25.400Z,9.20
2023-01-17T06:55:10.606Z,10.68
2023-01-17T06:57:57.721Z,9.77
2023-01-17T07:00:42.588Z,10.00
2023-01-17T07:03:27.650Z,10.40
2023-01-17T07:06:12.814Z,14.98
2023-01-17T07:08:59.006Z,11.05
2023-01-17T07:11:45.298Z,11.45
2023-01-17T07:14:30.928Z,10.55
2023-01-17T07:17:15.973Z,10.65
2023-01-17T07:20:01.523Z,11.88
2023-01-17T07:22:46.938Z,13.02
2023-01-17T07:25:32.433Z,10.18
2023-01-17T07:28:17.586Z,11.55
2023-01-17T07:31:08.005Z,21.52
2023-01-17T07:33:53.288Z,22.83
2023-01-17T07:36:38.618Z,21.23
2023-01-17T07:39:23.826Z,17.13
2023-01-17T07:42:09.310Z,15.88
2023-01-17T07:44:54.470Z,96.38
2023-01-17T07:47:39.869Z,60.78
2023-01-17T07:50:24.814Z,28.25
2023-01-17T07:53:10.426Z,21.90
2023-01-17T07:55:55.905Z,15.32
2023-01-17T07:58:40.997Z,11.45
2023-01-17T08:01:27.228Z,12.85
2023-01-17T08:04:14.044Z,11.43
2023-01-17T08:07:00.522Z,12.25
2023-01-17T08:09:49.588Z,12.68
2023-01-17T08:12:35.961Z,11.15
2023-01-17T08:15:20.999Z,9.90
2023-01-17T08:18:05.991Z,12.88
2023-01-17T08:20:50.995Z,11.27
2023-01-17T08:23:36.024Z,13.35
2023-01-17T08:26:22.390Z,13.50
2023-01-17T08:29:08.223Z,11.80
2023-01-17T08:31:54.039Z,10.38
2023-01-17T08:34:39.114Z,14.93
2023-01-17T08:37:24.451Z,15.40
2023-01-17T08:40:11.039Z,14.07
2023-01-17T08:42:58.130Z,10.48
2023-01-17T08:45:48.212Z,14.80
2023-01-17T08:51:17.967Z,13.30
2023-01-17T08:54:02.990Z,13.88
2023-01-17T08:56:48.485Z,14.20
2023-01-17T08:59:33.609Z,12.95
2023-01-17T09:02:19.711Z,13.68
2023-01-17T09:05:05.081Z,13.35
2023-01-17T09:07:50.020Z,15.57
2023-01-17T09:10:35.105Z,11.80
2023-01-17T09:13:21.182Z,12.02
2023-01-17T09:16:08.523Z,11.85
2023-01-17T09:18:55.936Z,14.27
2023-01-17T09:21:41.396Z,11.02
2023-01-17T09:24:26.287Z,14.30
2023-01-17T09:27:11.585Z,16.00
2023-01-17T09:29:56.749Z,13.30
2023-01-17T09:32:41.930Z,11.38
2023-01-17T09:35:27.246Z,13.68
2023-01-17T09:38:13.122Z,14.40
2023-01-17T09:40:58.501Z,14.18
2023-01-17T09:43:50.845Z,15.75
2023-01-17T09:46:46.198Z,14.13
2023-01-17T09:49:46.685Z,13.90
2023-01-17T09:52:33.277Z,12.45
2023-01-17T09:55:19.764Z,28.13
2023-01-17T09:58:11.277Z,16.85
2023-01-17T10:00:56.533Z,15.68
2023-01-17T10:04:02.451Z,18.25
2023-01-17T10:07:11.264Z,19.52
2023-01-17T10:10:15.324Z,12.60
2023-01-17T10:13:13.689Z,13.52
2023-01-17T10:16:05.118Z,19.90
2023-01-17T10:19:12.743Z,17.23
2023-01-17T10:22:25.800Z,14.07
2023-01-17T10:25:39.027Z,16.45
2023-01-17T10:28:36.157Z,13.00
2023-01-17T10:31:27.675Z,14.43
2023-01-17T10:34:18.927Z,22.45
2023-01-17T10:37:47.851Z,21.15
2023-01-17T10:40:51.129Z,15.43
2023-01-17T10:43:44.237Z,14.70
2023-01-17T10:46:47.240Z,15.55
2023-01-17T10:49:32.692Z,21.63
2023-01-17T10:52:39.778Z,14.77
2023-01-17T10:55:40.287Z,32.95
2023-01-17T10:58:25.608Z,26.73
2023-01-17T11:01:18.865Z,18.42
2023-01-17T11:04:11.039Z,20.70
2023-01-17T11:07:17.699Z,17.55
2023-01-17T11:10:03.003Z,17.90
2023-01-17T11:12:48.130Z,14.88
2023-01-17T11:15:39.459Z,21.80
2023-01-17T11:18:28.836Z,30.75
2023-01-17T11:21:21.376Z,25.83
2023-01-17T11:24:12.231Z,22.30
2023-01-17T11:26:58.218Z,24.42
2023-01-17T11:29:43.185Z,26.65
2023-01-17T11:32:33.621Z,22.05
2023-01-17T11:35:25.460Z,15.43
2023-01-17T11:38:21.895Z,17.02
2023-01-17T11:41:21.794Z,16.17
2023-01-17T11:44:30.380Z,18.20
2023-01-17T11:47:19.002Z,17.47
2023-01-17T11:50:23.644Z,13.70
2023-01-17T11:53:33.539Z,18.05
2023-01-17T11:56:33.060Z,17.52
2023-01-17T11:59:30.012Z,27.50
2023-01-17T12:02:37.023Z,25.98
2023-01-17T12:05:48.145Z,16.98
2023-01-17T12:08:55.625Z,16.20
2023-01-17T12:12:10.661Z,18.30
2023-01-17T12:15:04.896Z,12.85
2023-01-17T12:18:15.950Z,15.98
2023-01-17T12:21:17.370Z,14.98
2023-01-17T12:24:33.167Z,24.35
2023-01-17T12:27:24.217Z,26.55
2023-01-17T12:30:18.235Z,16.25
2023-01-17T12:33:17.952Z,13.07
2023-01-17T12:36:33.112Z,14.98
2023-01-17T12:39:24.683Z,15.52
2023-01-17T12:42:20.117Z,10.57
2023-01-17T12:45:09.727Z,9.75
2023-01-17T12:48:01.372Z,13.88
2023-01-17T12:51:00.182Z,16.02
2023-01-17T12:54:12.143Z,29.30
2023-01-17T12:57:03.748Z,25.55
2023-01-17T13:00:12.636Z,24.48
2023-01-17T13:03:15.704Z,16.63
2023-01-17T13:06:02.725Z,20.90
2023-01-17T13:08:54.035Z,13.38
2023-01-17T13:11:49.754Z,11.82
2023-01-17T13:14:35.846Z,13.60
2023-01-17T13:17:33.374Z,13.90
2023-01-17T13:20:59.320Z,12.95
2023-01-17T13:24:02.710Z,14.07
2023-01-17T13:26:50.822Z,11.77
2023-01-17T13:29:40.995Z,13.27
2023-01-17T13:32:46.290Z,15.27
2023-01-17T13:35:42.736Z,10.43
2023-01-17T13:38:37.032Z,10.50
2023-01-17T13:41:34.609Z,12.98
2023-01-17T13:44:23.001Z,10.18
2023-01-17T13:47:17.451Z,13.00
2023-01-17T13:50:02.342Z,11.52
2023-01-17T13:52:47.291Z,12.15
2023-01-17T13:55:53.286Z,15.80
2023-01-17T13:58:51.705Z,13.43
2023-01-17T14:01:46.111Z,14.05
2023-01-17T14:05:08.953Z,13.02
2023-01-17T14:07:55.676Z,20.30
2023-01-17T14:10:49.972Z,18.25
2023-01-17T14:13:37.561Z,13.50
2023-01-17T14:16:22.465Z,12.98
2023-01-17T14:19:25.724Z,15.02
2023-01-17T14:22:31.384Z,14.02
2023-01-17T14:25:20.532Z,16.30
2023-01-17T14:28:30.004Z,18.55
2023-01-17T14:31:16.749Z,19.73
2023-01-17T14:34:13.037Z,22.88
2023-01-17T14:37:20.323Z,24.00
2023-01-17T14:40:20.304Z,17.75
2023-01-17T14:43:40.224Z,14.63
2023-01-17T14:46:32.231Z,16.25
2023-01-17T14:49:24.157Z,17.95
2023-01-17T14:52:18.132Z,14.43
2023-01-17T14:55:15.825Z,18.17
2023-01-17T14:58:01.156Z,15.15
2023-01-17T15:00:49.714Z,17.77
2023-01-17T15:03:43.293Z,16.88
2023-01-17T15:06:40.786Z,15.43
2023-01-17T15:09:29.431Z,18.17
2023-01-17T15:12:14.724Z,18.38
2023-01-17T15:15:00.827Z,17.15
2023-01-17T15:17:45.719Z,19.30
2023-01-17T15:20:31.123Z,17.63
2023-01-17T15:23:20.200Z,14.90
2023-01-17T15:26:11.047Z,19.52
2023-01-17T15:29:04.652Z,14.27
2023-01-17T15:31:55.517Z,16.95
2023-01-17T15:34:44.802Z,17.02
2023-01-17T15:37:33.241Z,16.55
2023-01-17T15:40:23.953Z,17.55
2023-01-17T15:43:20.083Z,20.77
2023-01-17T15:46:05.651Z,16.27
2023-01-17T15:48:51.670Z,17.83
2023-01-17T15:51:38.815Z,18.60
2023-01-17T15:54:47.923Z,19.65
2023-01-17T15:57:39.006Z,15.95
2023-01-17T16:00:38.263Z,20.25
2023-01-17T16:03:26.369Z,21.92
2023-01-17T16:06:29.709Z,14.88
2023-01-17T16:09:24.787Z,17.27
2023-01-17T16:12:09.827Z,19.45
2023-01-17T16:15:11.149Z,15.68
2023-01-17T16:18:00.818Z,15.15
2023-01-17T16:20:58.862Z,13.95
2023-01-17T16:23:46.838Z,19.63
2023-01-17T16:26:31.752Z,16.42
2023-01-17T16:29:16.876Z,16.80
2023-01-17T16:32:08.604Z,17.75
2023-01-17T16:34:53.833Z,19.67
2023-01-17T16:37:39.181Z,23.05
2023-01-17T16:40:27.692Z,19.48
2023-01-17T16:43:14.535Z,19.38
2023-01-17T16:46:05.892Z,17.65
2023-01-17T16:48:51.861Z,22.13
2023-01-17T16:51:37.291Z,20.13
2023-01-17T16:54:22.931Z,18.98
2023-01-17T16:57:07.994Z,22.52
2023-01-17T16:59:53.183Z,21.05
2023-01-17T17:02:39.451Z,24.13
2023-01-17T17:05:25.978Z,21.10
2023-01-17T17:08:11.407Z,20.98
2023-01-17T17:11:17.344Z,20.80
2023-01-17T17:14:02.721Z,21.85
2023-01-17T17:16:51.626Z,25.25
2023-01-17T17:19:36.597Z,21.30
2023-01-17T17:22:21.527Z,25.10
2023-01-17T17:25:07.152Z,22.17
2023-01-17T17:27:52.874Z,21.77
2023-01-17T17:30:38.305Z,28.50
2023-01-17T17:33:23.601Z,22.20
2023-01-17T17:36:12.302Z,23.15
2023-01-17T17:38:58.111Z,20.17
2023-01-17T17:41:44.577Z,24.85
2023-01-17T17:44:29.988Z,23.08
2023-01-17T17:47:16.106Z,25.75
2023-01-17T17:50:01.459Z,24.67
2023-01-17T17:52:48.295Z,21.45
2023-01-17T17:55:35.156Z,25.55
2023-01-17T17:58:20.864Z,20.90
2023-01-17T18:01:06.844Z,27.15
2023-01-17T18:03:53.838Z,29.70
2023-01-17T18:06:40.276Z,28.13
2023-01-17T18:09:25.455Z,21.42
2023-01-17T18:12:10.517Z,28.02
2023-01-17T18:14:55.773Z,24.45
2023-01-17T18:17:40.703Z,31.70
2023-01-17T18:20:26.630Z,24.58
2023-01-17T18:23:11.529Z,25.98
2023-01-17T18:25:56.857Z,30.20
2023-01-17T18:28:41.979Z,27.05
2023-01-17T18:31:28.744Z,29.98
2023-01-17T18:34:15.899Z,25.52
2023-01-17T18:37:01.199Z,26.65
2023-01-17T18:39:46.536Z,22.30
2023-01-17T18:42:31.694Z,30.23
2023-01-17T18:45:17.099Z,28.70
2023-01-17T18:48:02.605Z,25.35
2023-01-17T18:50:58.691Z,27.38
2023-01-17T18:53:45.071Z,25.63
2023-01-17T18:56:36.408Z,29.05
2023-01-17T18:59:23.333Z,26.92
2023-01-17T19:02:09.409Z,28.20
2023-01-17T19:04:54.324Z,22.98
2023-01-17T19:07:39.470Z,20.90
2023-01-17T19:10:25.841Z,24.60
2023-01-17T19:13:11.418Z,23.70
2023-01-17T19:16:00.127Z,19.83
2023-01-17T19:18:44.978Z,26.15
2023-01-17T19:21:30.312Z,21.65
2023-01-17T19:24:15.680Z,25.75
2023-01-17T19:27:02.562Z,22.75
2023-01-17T19:29:47.708Z,26.92
2023-01-17T19:32:32.720Z,24.42
2023-01-17T19:35:18.662Z,25.23
2023-01-17T19:38:04.011Z,26.88
2023-01-17T19:40:48.887Z,22.42
2023-01-17T19:43:33.694Z,23.67
2023-01-17T19:46:19.574Z,21.02
2023-01-17T19:49:06.883Z,27.98
2023-01-17T19:51:52.195Z,23.67
2023-01-17T19:54:37.351Z,23.92
2023-01-17T19:57:24.219Z,21.88
2023-01-17T20:00:13.170Z,28.02
2023-01-17T20:02:58.312Z,22.08
2023-01-17T20:05:44.874Z,27.77
2023-01-17T20:08:29.902Z,26.58
2023-01-17T20:11:18.518Z,29.80
2023-01-17T20:14:07.632Z,25.08
2023-01-17T20:16:53.602Z,27.73
2023-01-17T20:19:38.438Z,26.65
2023-01-17T20:22:23.435Z,23.65
2023-01-17T20:25:09.511Z,23.95
2023-01-17T20:27:55.398Z,26.08
2023-01-17T20:30:40.765Z,22.73
2023-01-17T20:33:27.110Z,28.23
2023-01-17T20:36:14.864Z,34.50
2023-01-17T20:39:03.863Z,27.02
2023-01-17T20:41:51.384Z,23.13
2023-01-17T20:44:37.417Z,26.88
2023-01-17T20:47:24.258Z,30.50
2023-01-17T20:50:10.088Z,29.02
2023-01-17T20:52:55.048Z,24.65
2023-01-17T20:55:40.325Z,24.25
2023-01-17T20:58:25.410Z,24.70
2023-01-17T21:01:13.605Z,23.20
2023-01-17T21:03:59.034Z,23.08
2023-01-17T21:06:44.367Z,26.63
2023-01-17T21:09:29.453Z,26.60
2023-01-17T21:12:16.004Z,23.80
2023-01-17T21:15:01.358Z,22.30
2023-01-17T21:17:46.418Z,21.58
2023-01-17T21:20:34.640Z,23.67
2023-01-17T21:23:20.186Z,21.27
2023-01-17T21:26:07.075Z,24.10
2023-01-17T21:28:52.517Z,24.23
2023-01-17T21:31:40.203Z,24.40
2023-01-17T21:34:25.585Z,22.05
2023-01-17T21:37:10.720Z,22.70
2023-01-17T21:39:56.917Z,24.23
2023-01-17T21:42:41.923Z,23.00
2023-01-17T21:45:31.885Z,25.30
2023-01-17T21:51:06.071Z,26.70
2023-01-17T21:53:51.295Z,30.60
2023-01-17T21:56:55.153Z,20.73
2023-01-17T21:59:40.542Z,21.83
2023-01-17T22:02:25.588Z,23.92
2023-01-17T22:05:11.067Z,21.80
2023-01-17T22:08:11.202Z,24.90
2023-01-17T22:10:56.248Z,33.35
2023-01-17T22:13:43.398Z,28.30
2023-01-17T22:16:28.490Z,40.00
2023-01-17T22:19:13.677Z,47.10
2023-01-17T22:21:58.630Z,27.83
2023-01-17T22:24:43.621Z,24.90
2023-01-17T22:27:29.244Z,26.05
2023-01-17T22:30:14.582Z,22.23
2023-01-17T22:32:59.709Z,25.27
2023-01-17T22:35:44.717Z,22.50
2023-01-17T22:38:30.405Z,21.55
2023-01-17T22:41:19.911Z,20.98
2023-01-17T22:44:08.459Z,28.80
2023-01-17T22:46:53.704Z,18.52
2023-01-17T22:49:38.707Z,24.13
2023-01-17T22:52:23.710Z,23.40
2023-01-17T22:55:09.213Z,26.02
2023-01-17T22:57:54.196Z,24.67
2023-01-17T23:00:40.239Z,27.48
2023-01-17T23:03:25.388Z,27.80
2023-01-17T23:06:12.017Z,27.35
2023-01-17T23:09:00.877Z,26.90
2023-01-17T23:11:52.687Z,22.42
2023-01-17T23:14:56.206Z,31.25
2023-01-17T23:17:59.998Z,25.50
2023-01-17T23:20:45.273Z,31.10
2023-01-17T23:23:31.908Z,33.28
2023-01-17T23:26:17.225Z,39.20
2023-01-17T23:29:02.594Z,28.83
2023-01-17T23:31:47.843Z,30.55
2023-01-17T23:34:33.117Z,32.83
2023-01-17T23:37:18.291Z,27.67
2023-01-17T23:40:03.758Z,26.73
2023-01-17T23:43:07.521Z,26.92
2023-01-17T23:45:54.294Z,25.42
2023-01-17T23:48:39.496Z,28.10
2023-01-17T23:51:24.877Z,23.85
2023-01-17T23:54:10.154Z,24.60
2023-01-17T23:56:55.476Z,25.05
2023-01-17T23:59:40.389Z,32.53
